Productos aeronáuticos

  • SIGMET
  • METAR / SPECI
  • TAF
  • AIREP
  • Aviso de aeródromo
  • Pronárea
  • Carta superficie
Fecha : 25/06/2017
FTUY 03 SUMU 25 11 30
SUMU TAF 251130Z 2512/2612 36015KT CAVOK TX25/2518Z TN15/2610Z PROB40 TEMPO 2515/2600 36015G25KT=
SULS TAF 251130Z 2512/2612 36015KT CAVOK TX25/2518Z TN13/2610Z PROB40 TEMPO 2515/2600 36015G25KT=
SUAA TAF 251130Z 2512/2612 36015KT CAVOK TX25/2518Z TN15/2610Z PROB40 TEMPO 2515/2600 36015G25KT=
SUCA TAF 251130Z 2512/2612 01015KT CAVOK TX26/2518Z TN15/2610Z PROB40 TEMPO 2515/2600 01015G25KT=
SUDU TAF 251130Z 2512/2612 02015KT 9999 SCT017 SCT070 BKN200 TX26/2518Z TN13/2610Z PROB40 TEMPO 2515/2600 02015G25KT=
SUSO TAF 251130Z 2512/2612 02015KT 9999 FEW020 BKN200 TX26/2518Z TN14/2610Z PROB40 TEMPO 2515/2600 02015G25KT=
SURV TAF 251130Z 2512/2612 06003KT 2000 BR NSC TX26/2518Z TN13/2610Z BECMG 2512/2514 02015KT CAVOK PROB30 TEMPO 2515/2600 02015G25KT=

Predictor :


Mensajes TAF vigentes - Internacionales


Argentina
TAF SAME 251100Z 2512/2612 05005KT 5000 BR SCT030 BKN060 TX17/2520Z TN08/2610Z TEMPO 2518/2520 14010KT 9999 OVC040
TAF SABE 251100Z 2512/2612 02010KT CAVOK TX24/2518Z TN18/2609Z BECMG 2516/2518 02015KT BECMG 2608/2610 36010KT
TAF SAAR 251100Z 2512/2612 05015KT 9999 SCT025 BKN100 TX27/2518Z TN20/2608Z BECMG 2608/2610 05005KT 7000 NS2610/2612 3000 BR
TAF SAEZ 251100Z 2512/2612 02010KT CAVOK TX25/2518Z TN20/2609Z BECMG 2516/2518 02015KT BECMG 2608/2610 36010KT 7000 NSC
TAF SACO 251100Z 2512/2612 02015KT 9999 SCT020 TX26/2518 TN13/2610 TEMPO 2515/2518 02025KT CAVOK
Bolivia
TAF SLLP 251035Z 2512/2612 27008KT 9999 NSC TX16/2520Z TNM06/2610Z TEMPO 2518/2522 33010G20KT FEW020 BECMG 2523/2602 04005KT
Brasil
TAF SBBR 2512/2612 13007KT 9000 NSC TX24/2517Z TN14/2607Z BECMG 2513/2515 10010KT 9999 SCT040 BECMG 2519/2520 15006KT FEW045 BECMG 2600/2601 12004KT CAVOK BECMG 2603/2605 13005KT RMK PEW
TAF SBGR 251008Z 2512/2618 06007KT CAVOK TN10/2607Z TX23/2617Z BECMG 2518/2520 14008KT BECMG 2522/2524 BKN011 BECMG 2602/2604 00000KT FEW011 BECMG 2605/2607 05005KT PROB30 2609/2612 BKN005 BECMG 2613/2615 CAVOK RMK PGN
TAF SBSP 251008Z 2512/2612 07008KT CAVOK TX21/2517Z TN11/2607Z BECMG 2517/2519 14010KT FEW035 BECMG 2521/2523 BKN009 BECMG 2602/2604 10003KT FEW011 PROB30 2609/2611 08005KT BKN007 RMK PGN
TAF SBFI 250930Z 2512/2612 07005KT CAVOK TX27/2518Z TN17/2610Z PROB30 2515/2520 04012KT RMK PDN
TAF SBPA 250930Z 2512/2612 09004KT CAVOK TX25/2518Z TN15/2611Z PROB30 2512/2514 34002KT BECMG 2609/2612 34002KT RMK PDN
TAF SBFL 250930Z 2512/2612 35006KT 9999 SCT030 TX23/2518Z TN17/2610Z PROB30 2512/2517 BKN020 PROB30 2517/2602 02008KT FEW030 RMK PDN
TAF SBRJ 250200Z 2506/2518 10005KT 9999 FEW020 TN19/2508Z TX23/2517Z PROB30 2509/2511 05005KT 4000 BR BKN006 BECMG 2512/2514 14005KT BKN025 RMK PGY
Colombia
TAF SKBO 251100Z 2512/2612 06006KT 9999 SCT020 SCT200 TEMPO 2512/2513 8000 VCFG -DZ SCT015 TEMPO 2517/2522 14010KT 8000 RA SCT018TCU TEMPO 2600/2602 8000 - DZRA SCT017TCU TEMPO 2609/2612 7000 VCFG SCT015 TX19/2518Z TN10/2611Z
Chile
TAF SCCI 251031Z 2512/2612 29008KT CAVOK TNM08/2512Z TX00/2518Z TEMPO 2512/2516 VRB02KT BECMG 2513/2515 32008KT BECMG 2520/2522 30005KT BECMG 2600/2602 27010KT BECMG 2606/2608 27015KT FEW020
TAF SCEL 251017Z 2512/2612 03004KT 6000 BKN130 OVC200 TX12/2519Z TN07/2610Z TEMPO 2512/2514 VRB02KT 4000 BR SCT020 OVC120 BECMG 2516/2518 16008KT 9999 BKN100 OVC170 BECMG 2518/2520 6000 SHRA BKN040 OVC080 BECMG 2600/2602 03004KT 7000 SCT050 BKN150
Ecuador
SEQM 250930Z 2512/2612 VRB03KT 9999 SCT033 FM251800 35010KT 9999 SCT040 TEMPO 2519/2522 BKN040 FM260000 03004KT 9999 FEW010 BKN030 FM260400 00000KT 5000 BCFG SCT005 BKN020 TX23/2518Z TN10/2611Z
EEUU
KLGA 251136Z 2512/2612 35003KT P6SM FEW100 FEW250 FM251500 30006KT P6SM FEW060 FEW250 FM251700 25007KT P6SM SCT080 FM251900 23010G17KT P6SM SCT080 FM252200 23011KT P6SM SCT060 FM260300 28010KT P6SM SCT060 FM260800 29006KT P6SM FEW050 FEW250
KMIA 251132Z 2512/2612 12008KT P6SM SCT020 SCT250 FM251400 12012KT P6SM FEW025 SCT050 BKN250 FM260100 10006KT P6SM SCT025 SCT250
KJFK 251132Z 2512/2618 36003KT P6SM FEW110 FEW250 FM251500 25007KT P6SM FEW060 FEW250 FM251700 22008KT P6SM SCT080 FM252000 21012G18KT P6SM SCT080 FM252200 22014KT P6SM SCT060 FM260300 28011KT P6SM SCT060 FM261000 28007KT P6SM SKC FM261700 23008KT P6SM FEW050 FEW240
KIAD 251120Z 2512/2618 31005KT P6SM FEW090 SCT250 FM251500 30009KT P6SM FEW060 SCT250 FM251700 29010G22KT P6SM FEW070 SCT250 FM260300 30006KT P6SM FEW100 FEW250
KDCA 251120Z 2512/2612 32005KT P6SM FEW080 SCT250 FM251500 30009KT P6SM FEW070 SCT250 FM260500 30005KT P6SM FEW110 FEW250
Inglaterra
TAF EGLL 251054Z 2512/2618 25012KT 9999 BKN030 TEMPO 2512/2518 27015G25KT PROB30 TEMPO 2512/2518 8000 -SHRA BECMG 2600/2603 03003KT
Panamá
TAF MPTO 251100Z 2512/2618 16005KT 9999 SCT017CB BKN100 BECMG 2513/2517 7000 -TSRA SCT016CB BKN090 PROB40 TEMPO 2519/2523 25006KT 5000 TSRA SCT015CB BKN080
Paraguay
TAF SGAS 251030Z 2512/2612 06007KT CAVOK TX29/2519Z TN20/2610Z BECMG 2514/2516 05014KT CAVOK BECMG 2601/2604 09008KT 8000 NSC
Venezuela
TAF SVMI 251000Z 2512/2612 00000KT 9999 FEW016 SCT100 TX33/18Z TN25/08Z FM251430 VRB12KT 9999 FEW016 BECMG 2519/2522 SCT016

* Datos extraidos del Text DataServer de la NOAA (NOAA TEXT DATA SERVER)

Instituto Uruguayo de Meteorología

Dr. Javier Barrios Amorín 1488 - CP 11200
Mesa Central (598) 1895

Montevideo - Uruguay